createdAt,value
2023-05-19T00:01:00.694Z,19.70
2023-05-19T00:03:29.286Z,18.48
2023-05-19T00:05:59.170Z,20.23
2023-05-19T00:08:30.688Z,20.70
2023-05-19T00:10:59.225Z,17.67
2023-05-19T00:13:28.347Z,19.15
2023-05-19T00:15:56.423Z,19.13
2023-05-19T00:18:24.193Z,19.60
2023-05-19T00:20:52.730Z,23.55
2023-05-19T00:23:20.804Z,22.80
2023-05-19T00:25:48.719Z,21.17
2023-05-19T00:28:16.526Z,18.30
2023-05-19T00:30:44.656Z,23.30
2023-05-19T00:33:12.644Z,18.13
2023-05-19T00:35:41.352Z,25.15
2023-05-19T00:38:09.352Z,26.92
2023-05-19T00:40:37.295Z,28.15
2023-05-19T00:43:06.024Z,23.70
2023-05-19T00:45:33.877Z,18.02
2023-05-19T00:48:01.728Z,22.13
2023-05-19T00:50:29.790Z,25.05
2023-05-19T00:52:58.333Z,23.25
2023-05-19T00:55:29.878Z,20.05
2023-05-19T00:57:58.335Z,22.13
2023-05-19T01:00:26.243Z,21.13
2023-05-19T01:02:54.597Z,17.70
2023-05-19T01:05:22.662Z,21.42
2023-05-19T01:07:53.760Z,20.95
2023-05-19T01:10:21.855Z,19.67
2023-05-19T01:12:49.966Z,24.70
2023-05-19T01:15:17.837Z,19.23
2023-05-19T01:18:07.583Z,20.90
2023-05-19T01:20:52.924Z,18.67
2023-05-19T01:24:09.248Z,16.40
2023-05-19T01:27:01.697Z,15.57
2023-05-19T01:30:01.394Z,19.73
2023-05-19T01:32:30.852Z,17.52
2023-05-19T01:34:59.470Z,17.33
2023-05-19T01:37:29.185Z,17.98
2023-05-19T01:39:57.919Z,17.83
2023-05-19T01:42:26.905Z,16.33
2023-05-19T01:44:55.990Z,16.00
2023-05-19T01:47:24.127Z,19.42
2023-05-19T01:49:52.631Z,13.18
2023-05-19T01:52:20.820Z,17.50
2023-05-19T01:54:49.765Z,16.45
2023-05-19T01:57:50.062Z,14.88
2023-05-19T02:00:53.330Z,14.85
2023-05-19T02:03:48.610Z,15.82
2023-05-19T02:06:42.556Z,13.75
2023-05-19T02:09:21.027Z,11.95
2023-05-19T02:12:04.477Z,12.57
2023-05-19T02:14:42.402Z,10.52
2023-05-19T02:17:13.872Z,15.25
2023-05-19T02:19:43.704Z,11.52
2023-05-19T02:22:11.867Z,13.27
2023-05-19T02:24:39.919Z,9.70
2023-05-19T02:27:07.997Z,11.50
2023-05-19T02:29:36.218Z,14.18
2023-05-19T02:32:04.193Z,15.43
2023-05-19T02:34:31.995Z,10.30
2023-05-19T02:36:59.887Z,11.10
2023-05-19T02:39:29.721Z,11.52
2023-05-19T02:41:57.809Z,10.23
2023-05-19T02:44:26.003Z,12.13
2023-05-19T02:46:54.132Z,11.02
2023-05-19T02:49:22.067Z,11.88
2023-05-19T02:51:49.845Z,10.57
2023-05-19T02:54:17.388Z,9.27
2023-05-19T02:56:45.208Z,17.63
2023-05-19T02:59:13.175Z,12.43
2023-05-19T03:01:41.046Z,8.90
2023-05-19T03:04:09.065Z,8.13
2023-05-19T03:06:37.000Z,9.52
2023-05-19T03:09:04.892Z,10.25
2023-05-19T03:11:33.700Z,9.57
2023-05-19T03:14:02.316Z,7.20
2023-05-19T03:16:30.717Z,6.97
2023-05-19T03:18:59.980Z,7.10
2023-05-19T03:21:28.121Z,8.55
2023-05-19T03:23:55.980Z,7.07
2023-05-19T03:26:24.740Z,8.75
2023-05-19T03:28:52.634Z,6.13
2023-05-19T03:31:21.183Z,8.45
2023-05-19T03:33:49.071Z,9.65
2023-05-19T03:36:17.879Z,6.38
2023-05-19T03:38:45.877Z,7.03
2023-05-19T03:41:13.792Z,4.45
2023-05-19T03:43:41.835Z,7.50
2023-05-19T03:46:11.002Z,6.68
2023-05-19T03:48:41.724Z,5.40
2023-05-19T03:51:45.022Z,10.73
2023-05-19T03:54:27.937Z,5.03
2023-05-19T03:56:56.140Z,6.93
2023-05-19T03:59:24.785Z,5.30
2023-05-19T04:05:34.998Z,5.00
2023-05-19T04:08:03.333Z,5.38
2023-05-19T04:10:31.219Z,6.07
2023-05-19T04:12:59.048Z,4.72
2023-05-19T04:15:27.628Z,7.07
2023-05-19T04:17:56.556Z,8.10
2023-05-19T04:20:24.183Z,4.03
2023-05-19T04:22:52.092Z,5.32
2023-05-19T04:25:20.482Z,4.75
2023-05-19T04:27:49.000Z,5.82
2023-05-19T04:30:22.791Z,3.30
2023-05-19T04:32:51.671Z,5.45
2023-05-19T04:35:19.882Z,4.15
2023-05-19T04:37:48.968Z,3.25
2023-05-19T04:40:21.585Z,12.45
2023-05-19T04:42:49.974Z,3.20
2023-05-19T04:45:18.737Z,4.07
2023-05-19T04:47:49.927Z,8.07
2023-05-19T04:50:17.685Z,4.50
2023-05-19T04:52:48.406Z,4.25
2023-05-19T04:55:16.356Z,6.22
2023-05-19T04:57:45.241Z,3.60
2023-05-19T05:00:15.100Z,5.60
2023-05-19T05:03:08.186Z,5.43
2023-05-19T05:05:36.132Z,4.60
2023-05-19T05:08:04.338Z,4.95
2023-05-19T05:10:36.841Z,3.33
2023-05-19T05:13:04.999Z,2.15
2023-05-19T05:15:33.287Z,3.95
2023-05-19T05:18:03.512Z,5.28
2023-05-19T05:20:35.123Z,3.67
2023-05-19T05:23:03.822Z,1.95
2023-05-19T05:25:33.992Z,2.15
2023-05-19T05:28:05.439Z,5.05
2023-05-19T05:30:35.885Z,2.15
2023-05-19T05:33:05.418Z,2.70
2023-05-19T05:35:37.604Z,3.88
2023-05-19T05:38:07.184Z,3.50
2023-05-19T05:40:36.057Z,7.35
2023-05-19T05:43:05.345Z,4.53
2023-05-19T05:45:37.452Z,3.30
2023-05-19T05:48:06.729Z,2.88
2023-05-19T05:50:35.017Z,1.85
2023-05-19T05:53:04.665Z,2.85
2023-05-19T05:55:35.476Z,7.00
2023-05-19T05:58:03.884Z,2.53
2023-05-19T06:00:32.059Z,2.90
2023-05-19T06:03:00.122Z,3.70
2023-05-19T06:05:27.993Z,3.85
2023-05-19T06:07:57.551Z,2.25
2023-05-19T06:10:28.931Z,3.70
2023-05-19T06:12:56.938Z,6.50
2023-05-19T06:15:26.418Z,5.05
2023-05-19T06:18:08.391Z,7.22
2023-05-19T06:20:36.213Z,5.60
2023-05-19T06:23:04.113Z,2.63
2023-05-19T06:25:31.868Z,2.42
2023-05-19T06:27:59.689Z,1.60
2023-05-19T06:30:28.660Z,4.70
2023-05-19T06:33:17.020Z,2.58
2023-05-19T06:35:44.359Z,3.88
2023-05-19T06:38:12.084Z,3.05
2023-05-19T06:40:39.827Z,3.03
2023-05-19T06:43:07.444Z,4.55
2023-05-19T06:45:53.263Z,3.72
2023-05-19T06:48:21.822Z,4.45
2023-05-19T06:50:50.960Z,5.85
2023-05-19T06:53:23.450Z,4.82
2023-05-19T06:55:59.557Z,2.63
2023-05-19T06:58:31.764Z,2.80
2023-05-19T07:01:00.654Z,2.75
2023-05-19T07:03:33.604Z,5.82
2023-05-19T07:06:01.445Z,3.00
2023-05-19T07:08:30.172Z,2.22
2023-05-19T07:11:01.115Z,6.00
2023-05-19T07:13:29.584Z,3.58
2023-05-19T07:15:58.167Z,3.42
2023-05-19T07:18:32.028Z,2.95
2023-05-19T07:21:00.181Z,2.97
2023-05-19T07:23:28.149Z,5.10
2023-05-19T07:25:57.408Z,5.43
2023-05-19T07:28:26.228Z,2.28
2023-05-19T07:30:53.927Z,4.25
2023-05-19T07:33:21.922Z,3.28
2023-05-19T07:35:49.880Z,6.63
2023-05-19T07:38:17.693Z,3.60
2023-05-19T07:40:45.495Z,3.80
2023-05-19T07:43:13.217Z,3.53
2023-05-19T07:45:41.186Z,2.90
2023-05-19T07:48:09.187Z,4.75
2023-05-19T07:50:37.453Z,6.43
2023-05-19T07:53:05.092Z,5.72
2023-05-19T07:55:33.459Z,3.00
2023-05-19T07:58:01.180Z,5.97
2023-05-19T08:00:28.933Z,6.20
2023-05-19T08:02:57.813Z,2.72
2023-05-19T08:05:28.596Z,4.88
2023-05-19T08:07:57.843Z,12.93
2023-05-19T08:10:25.717Z,12.38
2023-05-19T08:12:53.580Z,11.23
2023-05-19T08:15:22.147Z,10.18
2023-05-19T08:17:53.967Z,6.82
2023-05-19T08:20:23.512Z,11.13
2023-05-19T08:22:51.830Z,6.88
2023-05-19T08:25:20.076Z,7.55
2023-05-19T08:27:48.154Z,4.80
2023-05-19T08:30:17.021Z,7.88
2023-05-19T08:32:45.258Z,16.45
2023-05-19T08:35:13.999Z,8.55
2023-05-19T08:37:41.884Z,6.57
2023-05-19T08:40:17.831Z,4.28
2023-05-19T08:42:46.921Z,7.22
2023-05-19T08:45:15.612Z,3.85
2023-05-19T08:47:48.469Z,7.20
2023-05-19T08:50:25.265Z,6.63
2023-05-19T08:56:11.261Z,3.95
2023-05-19T08:58:44.495Z,9.30
2023-05-19T09:01:18.431Z,6.28
2023-05-19T09:03:50.182Z,6.00
2023-05-19T09:06:18.997Z,13.23
2023-05-19T09:08:47.486Z,6.38
2023-05-19T09:11:18.305Z,5.72
2023-05-19T09:13:47.412Z,7.90
2023-05-19T09:16:16.283Z,11.52
2023-05-19T09:18:58.515Z,9.57
2023-05-19T09:21:33.619Z,5.78
2023-05-19T09:26:42.558Z,6.75
2023-05-19T09:29:18.471Z,12.18
2023-05-19T09:32:06.497Z,5.53
2023-05-19T09:34:35.058Z,7.95
2023-05-19T09:37:02.719Z,6.80
2023-05-19T09:39:31.069Z,7.57
2023-05-19T09:41:59.086Z,9.02
2023-05-19T09:44:31.576Z,9.55
2023-05-19T09:47:00.485Z,9.68
2023-05-19T09:49:30.836Z,8.90
2023-05-19T09:52:01.565Z,16.75
2023-05-19T09:54:32.614Z,23.40
2023-05-19T09:57:02.607Z,25.10
2023-05-19T09:59:33.687Z,26.17
2023-05-19T10:02:03.152Z,15.40
2023-05-19T10:04:31.837Z,21.65
2023-05-19T10:07:01.791Z,14.15
2023-05-19T10:09:30.222Z,15.98
2023-05-19T10:11:59.615Z,12.65
2023-05-19T10:14:29.397Z,14.32
2023-05-19T10:16:59.542Z,17.98
2023-05-19T10:19:29.528Z,17.15
2023-05-19T10:21:57.805Z,11.98
2023-05-19T10:24:25.672Z,13.90
2023-05-19T10:27:09.824Z,13.57
2023-05-19T10:29:46.337Z,15.57
2023-05-19T10:32:26.004Z,17.00
2023-05-19T10:35:37.878Z,8.98
2023-05-19T10:38:40.700Z,15.60
2023-05-19T10:41:29.319Z,11.77
2023-05-19T10:44:18.291Z,8.93
2023-05-19T10:46:46.708Z,14.25
2023-05-19T10:49:24.345Z,8.50
2023-05-19T10:51:59.268Z,10.60
2023-05-19T10:57:18.250Z,10.23
2023-05-19T10:59:46.528Z,10.40
2023-05-19T11:02:57.260Z,14.30
2023-05-19T11:05:31.323Z,8.57
2023-05-19T11:08:04.824Z,7.88
2023-05-19T11:10:32.925Z,9.07
2023-05-19T11:13:01.304Z,10.95
2023-05-19T11:15:29.269Z,11.40
2023-05-19T11:17:57.696Z,9.27
2023-05-19T11:20:28.897Z,8.68
2023-05-19T11:23:20.272Z,8.70
2023-05-19T11:25:48.805Z,12.07
2023-05-19T11:28:26.234Z,6.65
2023-05-19T11:30:58.137Z,7.82
2023-05-19T11:33:29.493Z,9.43
2023-05-19T11:35:58.786Z,8.40
2023-05-19T11:38:28.572Z,7.63
2023-05-19T11:40:57.803Z,7.90
2023-05-19T11:43:26.848Z,6.57
2023-05-19T11:45:56.198Z,7.55
2023-05-19T11:48:25.714Z,7.20
2023-05-19T11:50:53.939Z,7.97
2023-05-19T11:53:21.737Z,5.22
2023-05-19T11:55:50.015Z,8.45
2023-05-19T11:58:17.901Z,9.70
2023-05-19T12:00:48.058Z,10.00
2023-05-19T12:03:17.641Z,16.08
2023-05-19T12:05:49.338Z,16.52
2023-05-19T12:08:19.328Z,12.07
2023-05-19T12:10:51.559Z,13.40
2023-05-19T12:13:20.507Z,13.80
2023-05-19T12:15:48.590Z,7.68
2023-05-19T12:18:16.973Z,7.75
2023-05-19T12:20:46.279Z,8.82
2023-05-19T12:23:15.650Z,9.70
2023-05-19T12:25:43.424Z,10.18
2023-05-19T12:28:11.858Z,8.57
2023-05-19T12:30:40.028Z,15.13
2023-05-19T12:33:09.990Z,9.82
2023-05-19T12:35:38.579Z,7.80
2023-05-19T12:38:07.505Z,9.85
2023-05-19T12:40:36.809Z,7.20
2023-05-19T12:43:05.784Z,5.68
2023-05-19T12:45:37.550Z,6.93
2023-05-19T12:48:12.801Z,6.07
2023-05-19T12:50:40.822Z,4.63
2023-05-19T12:53:16.666Z,7.00
2023-05-19T12:55:46.773Z,8.05
2023-05-19T12:58:17.036Z,7.40
2023-05-19T13:00:49.036Z,13.93
2023-05-19T13:03:21.253Z,6.45
2023-05-19T13:05:51.731Z,4.97
2023-05-19T13:08:22.257Z,6.38
2023-05-19T13:10:50.050Z,4.30
2023-05-19T13:13:21.132Z,4.10
2023-05-19T13:15:49.397Z,3.40
2023-05-19T13:18:17.977Z,3.92
2023-05-19T13:20:47.587Z,8.55
2023-05-19T13:23:16.815Z,7.75
2023-05-19T13:25:53.738Z,10.00
2023-05-19T13:28:21.626Z,13.27
2023-05-19T13:30:49.930Z,13.32
2023-05-19T13:33:20.660Z,9.57
2023-05-19T13:35:49.414Z,8.05
2023-05-19T13:38:17.690Z,8.82
2023-05-19T13:40:46.258Z,10.65
2023-05-19T13:43:15.431Z,5.95
2023-05-19T13:45:44.963Z,4.82
2023-05-19T13:48:13.597Z,12.35
2023-05-19T13:50:41.521Z,10.13
2023-05-19T13:53:10.201Z,4.75
2023-05-19T13:55:38.656Z,11.38
2023-05-19T13:58:07.086Z,9.98
2023-05-19T14:00:37.513Z,4.68
2023-05-19T14:03:05.616Z,5.10
2023-05-19T14:05:35.557Z,12.20
2023-05-19T14:08:04.073Z,5.68
2023-05-19T14:10:32.538Z,5.70
2023-05-19T14:13:30.250Z,4.97
2023-05-19T14:15:52.820Z,2.38
2023-05-19T14:18:20.709Z,5.72
2023-05-19T14:20:48.572Z,6.32
2023-05-19T14:23:17.515Z,5.05
2023-05-19T14:25:45.662Z,7.15
2023-05-19T14:28:13.538Z,8.18
2023-05-19T14:30:41.900Z,2.30
2023-05-19T14:33:09.727Z,6.18
2023-05-19T14:35:37.671Z,5.07
2023-05-19T14:38:05.603Z,8.75
2023-05-19T14:40:33.807Z,9.27
2023-05-19T14:43:01.752Z,4.57
2023-05-19T14:45:30.134Z,4.55
2023-05-19T14:52:54.692Z,5.72
2023-05-19T14:55:22.389Z,7.25
2023-05-19T14:57:50.550Z,7.63
2023-05-19T15:00:19.871Z,3.33
2023-05-19T15:02:49.825Z,4.18
2023-05-19T15:05:17.986Z,6.93
2023-05-19T15:07:49.012Z,4.43
2023-05-19T15:10:20.241Z,6.65
2023-05-19T15:12:48.300Z,3.45
2023-05-19T15:15:18.717Z,3.70
2023-05-19T15:17:48.324Z,6.57
2023-05-19T15:20:16.600Z,2.83
2023-05-19T15:22:44.950Z,6.05
2023-05-19T15:25:12.674Z,4.93
2023-05-19T15:27:40.544Z,5.25
2023-05-19T15:30:08.765Z,6.80
2023-05-19T15:32:36.797Z,4.57
2023-05-19T15:35:04.950Z,7.53
2023-05-19T15:37:32.427Z,5.43
2023-05-19T15:40:00.491Z,5.18
2023-05-19T15:42:28.529Z,6.68
2023-05-19T15:44:56.486Z,6.40
2023-05-19T15:47:24.240Z,6.03
2023-05-19T15:49:52.114Z,4.63
2023-05-19T15:52:23.180Z,3.55
2023-05-19T15:54:51.174Z,4.35
2023-05-19T15:57:19.134Z,4.47
2023-05-19T15:59:47.194Z,2.63
2023-05-19T16:02:15.802Z,3.25
2023-05-19T16:04:43.818Z,2.72
2023-05-19T16:07:11.626Z,2.42
2023-05-19T16:09:39.771Z,4.40
2023-05-19T16:12:08.385Z,4.57
2023-05-19T16:14:37.998Z,3.42
2023-05-19T16:17:11.829Z,4.28
2023-05-19T16:19:42.830Z,2.88
2023-05-19T16:22:10.528Z,4.65
2023-05-19T16:24:38.638Z,3.40
2023-05-19T16:27:06.458Z,4.30
2023-05-19T16:29:34.191Z,3.80
2023-05-19T16:32:02.510Z,3.97
2023-05-19T16:34:30.755Z,2.60
2023-05-19T16:36:58.478Z,5.07
2023-05-19T16:39:26.196Z,3.75
2023-05-19T16:41:53.906Z,3.55
2023-05-19T16:44:21.567Z,3.92
2023-05-19T16:46:49.593Z,5.10
2023-05-19T16:49:17.433Z,2.80
2023-05-19T16:51:46.738Z,5.82
2023-05-19T16:54:15.585Z,5.40
2023-05-19T16:56:43.070Z,3.15
2023-05-19T16:59:10.944Z,4.65
2023-05-19T17:01:38.895Z,5.78
2023-05-19T17:04:06.346Z,6.20
2023-05-19T17:06:34.234Z,6.30
2023-05-19T17:09:02.338Z,5.00
2023-05-19T17:11:30.294Z,5.75
2023-05-19T17:14:02.299Z,3.83
2023-05-19T17:16:30.050Z,4.18
2023-05-19T17:18:57.827Z,6.55
2023-05-19T17:21:25.301Z,2.85
2023-05-19T17:23:53.414Z,5.18
2023-05-19T17:26:22.448Z,5.43
2023-05-19T17:28:52.752Z,7.40
2023-05-19T17:31:20.433Z,3.85
2023-05-19T17:33:48.417Z,8.23
2023-05-19T17:36:18.756Z,5.68
2023-05-19T17:38:46.611Z,4.75
2023-05-19T17:41:14.615Z,10.65
2023-05-19T17:43:44.324Z,5.47
2023-05-19T17:46:12.460Z,6.57
2023-05-19T17:48:40.267Z,7.43
2023-05-19T17:51:07.927Z,9.75
2023-05-19T17:53:36.065Z,12.50
2023-05-19T17:56:12.324Z,5.50
2023-05-19T17:58:41.620Z,9.57
2023-05-19T18:01:09.905Z,3.67
2023-05-19T18:03:38.453Z,7.25
2023-05-19T18:06:07.288Z,9.13
2023-05-19T18:08:37.218Z,5.20
2023-05-19T18:11:05.502Z,7.28
2023-05-19T18:13:33.417Z,6.18
2023-05-19T18:16:01.166Z,4.10
2023-05-19T18:18:29.296Z,5.05
2023-05-19T18:20:57.260Z,5.30
2023-05-19T18:23:25.144Z,5.20
2023-05-19T18:25:53.881Z,12.10
2023-05-19T18:28:22.363Z,7.35
2023-05-19T18:31:00.964Z,6.55
2023-05-19T18:33:31.037Z,8.73
2023-05-19T18:35:59.998Z,5.30
2023-05-19T18:38:30.121Z,5.38
2023-05-19T18:40:58.484Z,4.45
2023-05-19T18:43:26.499Z,6.35
2023-05-19T18:45:54.433Z,4.20
2023-05-19T18:48:22.970Z,6.85
2023-05-19T18:50:51.593Z,5.25
2023-05-19T18:53:21.059Z,8.65
2023-05-19T18:55:49.015Z,7.72
2023-05-19T18:58:19.729Z,10.25
2023-05-19T19:00:47.952Z,3.95
2023-05-19T19:03:19.985Z,9.02
2023-05-19T19:05:55.848Z,6.90
2023-05-19T19:08:24.136Z,2.92
2023-05-19T19:10:52.411Z,3.60
2023-05-19T19:13:20.178Z,4.60
2023-05-19T19:15:47.952Z,5.68
2023-05-19T19:18:16.700Z,9.70
2023-05-19T19:20:44.852Z,7.38
2023-05-19T19:23:13.813Z,8.25
2023-05-19T19:25:41.459Z,3.72
2023-05-19T19:28:09.680Z,3.60
2023-05-19T19:30:37.196Z,13.25
2023-05-19T19:33:06.651Z,7.13
2023-05-19T19:35:35.330Z,5.20
2023-05-19T19:38:03.588Z,13.50
2023-05-19T19:40:33.068Z,11.20
2023-05-19T19:43:00.830Z,14.85
2023-05-19T19:45:28.714Z,19.42
2023-05-19T19:47:57.144Z,17.60
2023-05-19T19:50:25.125Z,18.23
2023-05-19T19:52:53.133Z,20.60
2023-05-19T19:55:21.416Z,17.67
2023-05-19T19:57:52.900Z,12.95
2023-05-19T20:00:21.082Z,14.50
2023-05-19T20:03:03.656Z,16.92
2023-05-19T20:05:33.767Z,17.67
2023-05-19T20:08:02.049Z,16.20
2023-05-19T20:10:31.934Z,14.55
2023-05-19T20:13:00.198Z,13.73
2023-05-19T20:15:32.036Z,11.40
2023-05-19T20:18:00.543Z,11.52
2023-05-19T20:20:28.841Z,10.35
2023-05-19T20:22:57.226Z,12.70
2023-05-19T20:25:32.704Z,11.43
2023-05-19T20:28:02.773Z,11.02
2023-05-19T20:30:30.720Z,10.70
2023-05-19T20:32:58.963Z,17.02
2023-05-19T20:35:27.805Z,10.10
2023-05-19T20:37:58.386Z,9.52
2023-05-19T20:40:26.007Z,11.52
2023-05-19T20:42:53.919Z,11.48
2023-05-19T20:45:22.102Z,12.25
2023-05-19T20:47:50.428Z,16.45
2023-05-19T20:50:18.421Z,13.75
2023-05-19T20:52:49.104Z,13.05
2023-05-19T20:55:17.419Z,8.63
2023-05-19T20:57:45.248Z,8.75
2023-05-19T21:00:13.850Z,13.40
2023-05-19T21:02:45.108Z,12.10
2023-05-19T21:05:13.097Z,14.02
2023-05-19T21:07:40.844Z,8.55
2023-05-19T21:10:09.202Z,9.65
2023-05-19T21:12:37.474Z,7.97
2023-05-19T21:15:06.468Z,8.23
2023-05-19T21:17:34.630Z,12.55
2023-05-19T21:20:03.426Z,12.63
2023-05-19T21:22:31.402Z,9.02
2023-05-19T21:24:59.321Z,10.68
2023-05-19T21:27:27.647Z,9.35
2023-05-19T21:29:56.198Z,8.95
2023-05-19T21:32:24.320Z,12.35
2023-05-19T21:34:52.438Z,8.55
2023-05-19T21:37:21.907Z,11.98
2023-05-19T21:39:49.929Z,10.68
2023-05-19T21:42:18.163Z,10.60
2023-05-19T21:44:46.123Z,9.77
2023-05-19T21:47:15.375Z,6.90
2023-05-19T21:49:43.271Z,8.18
2023-05-19T21:52:11.230Z,11.50
2023-05-19T21:54:39.083Z,11.80
2023-05-19T21:57:07.042Z,17.98
2023-05-19T21:59:35.120Z,11.05
2023-05-19T22:02:03.265Z,18.13
2023-05-19T22:04:34.112Z,14.75
2023-05-19T22:07:02.244Z,14.80
2023-05-19T22:09:29.855Z,13.25
2023-05-19T22:11:59.423Z,14.52
2023-05-19T22:14:27.408Z,13.25
2023-05-19T22:16:55.511Z,11.50
2023-05-19T22:19:23.895Z,12.77
2023-05-19T22:22:02.003Z,14.98
2023-05-19T22:24:37.638Z,13.82
2023-05-19T22:27:08.390Z,11.82
2023-05-19T22:29:39.042Z,11.50
2023-05-19T22:32:12.171Z,12.23
2023-05-19T22:34:40.048Z,14.82
2023-05-19T22:37:07.886Z,13.95
2023-05-19T22:39:35.985Z,9.45
2023-05-19T22:42:03.622Z,11.48
2023-05-19T22:44:32.108Z,18.70
2023-05-19T22:47:00.130Z,19.30
2023-05-19T22:49:32.525Z,13.50
2023-05-19T22:52:00.412Z,13.35
2023-05-19T22:54:28.340Z,15.18
2023-05-19T22:56:56.359Z,15.57
2023-05-19T22:59:24.228Z,12.98
2023-05-19T23:01:58.182Z,11.30
2023-05-19T23:04:26.647Z,13.70
2023-05-19T23:06:54.431Z,10.75
2023-05-19T23:09:24.604Z,8.32
2023-05-19T23:11:52.708Z,8.52
2023-05-19T23:14:22.122Z,8.73
2023-05-19T23:16:50.820Z,11.13
2023-05-19T23:19:20.662Z,10.20
2023-05-19T23:21:49.505Z,11.18
2023-05-19T23:24:17.186Z,9.65
2023-05-19T23:26:45.204Z,8.00
2023-05-19T23:29:13.710Z,6.78
2023-05-19T23:31:41.983Z,10.65
2023-05-19T23:34:10.031Z,9.15
2023-05-19T23:36:37.726Z,8.50
2023-05-19T23:39:05.415Z,9.90
2023-05-19T23:41:33.317Z,7.13
2023-05-19T23:44:01.399Z,7.63
2023-05-19T23:46:29.527Z,6.80
2023-05-19T23:48:57.899Z,6.72
2023-05-19T23:51:25.774Z,6.65
2023-05-19T23:53:54.597Z,9.77
2023-05-19T23:56:22.792Z,7.05
2023-05-19T23:58:50.666Z,6.97
